CheckWX is a tool to help pilots better visualize weather data.  It is not intended as a substitute for an official pre-flight weather briefing.

12:20:17 UTC

KETH METAR
Wheaton Municipal Airport
Wheaton, Minnesota, USA
Current

22 mins ago

KETH 161158Z AUTO 00000KT 10SM CLR 21/18 A2990 RMK AO2
Observed
Jul-16 @ 11:58 UTC
Visibility
10 SM
Flight Rules
VFR
Cloud Levels
  • Clear skies
Temperature
21°C / 70°F
Dewpoint
18°C / 64°F
Humidity
83%
Altimeter
29.9" Hg
Pressure
1012.52 hPa
Previous

49 mins ago

KETH 161131Z AUTO 00000KT 10SM CLR 20/18 A2989 RMK AO2
Observed
Jul-16 @ 11:31 UTC
Visibility
10 SM
Flight Rules
VFR
Cloud Levels
  • Clear skies
Temperature
20°C / 68°F
Dewpoint
18°C / 64°F
Humidity
88%
Altimeter
29.89" Hg
Pressure
1012.22 hPa
Previous

1 hour ago

KETH 161116Z AUTO 00000KT 10SM CLR 20/18 A2988 RMK AO2
Observed
Jul-16 @ 11:16 UTC
Visibility
10 SM
Flight Rules
VFR
Cloud Levels
  • Clear skies
Temperature
20°C / 68°F
Dewpoint
18°C / 64°F
Humidity
88%
Altimeter
29.88" Hg
Pressure
1011.82 hPa